Time;durP1;ratioP1;P1;durP2;ratioP2;P2;SDS_P1;SDS_P2;PMS_P1;PMS_P2;Temp;Humidity;BMP_temperature;BMP_pressure;BME280_temperature;BME280_humidity;BME280_pressure;Samples;Min_cycle;Max_cycle;Signal;HPM_P1;HPM_P2
2023/04/25 00:01:12;;;;;;;6.55;1.90;;;;;;;9.52;88.82;99765.16;5184884;28;20667;-72
2023/04/25 00:03:43;;;;;;;11.10;2.05;;;;;;;9.53;89.30;99748.59;5190582;28;20094;-72
2023/04/25 00:06:14;;;;;;;4.32;1.92;;;;;;;9.58;88.62;99754.44;5188847;28;20029;-72
2023/04/25 00:08:44;;;;;;;6.45;2.00;;;;;;;9.42;89.15;99762.09;5180277;28;20478;-73
2023/04/25 00:11:14;;;;;;;7.70;2.08;;;;;;;9.50;88.28;99761.78;5188628;28;20075;-72
2023/04/25 00:16:35;;;;;;;5.75;1.95;;;;;;;9.28;89.43;99766.25;5188028;28;20103;-71
2023/04/25 00:19:06;;;;;;;4.88;1.80;;;;;;;9.38;89.82;99767.50;5187694;28;20029;-71
2023/04/25 00:21:40;;;;;;;6.78;1.92;;;;;;;9.41;89.07;99773.44;5162116;28;20453;-70
2023/04/25 00:24:10;;;;;;;6.22;1.95;;;;;;;9.35;89.18;99772.88;5188730;28;20079;-72
2023/04/25 00:26:40;;;;;;;8.05;2.00;;;;;;;9.42;89.52;99766.47;5180186;28;20030;-71
2023/04/25 00:29:11;;;;;;;5.97;2.08;;;;;;;9.36;89.67;99767.59;5162830;28;20025;-72
2023/04/25 00:31:41;;;;;;;7.22;2.13;;;;;;;9.29;89.23;99768.75;5185012;28;20390;-72
2023/04/25 00:34:11;;;;;;;7.28;2.22;;;;;;;9.08;91.15;99763.59;5181562;28;20795;-72
2023/04/25 00:36:42;;;;;;;6.38;1.98;;;;;;;9.27;90.56;99764.50;5184508;28;20033;-73
2023/04/25 00:39:12;;;;;;;6.55;2.03;;;;;;;9.23;90.47;99762.97;5164263;28;20411;-73
2023/04/25 00:41:42;;;;;;;9.68;2.00;;;;;;;9.26;90.11;99760.22;5184473;28;20022;-74
2023/04/25 00:44:16;;;;;;;7.82;2.28;;;;;;;9.24;89.68;99762.03;5163747;28;20464;-74
2023/04/25 00:46:49;;;;;;;6.93;2.10;;;;;;;9.22;90.61;99756.06;5166804;28;20205;-73
2023/04/25 00:49:19;;;;;;;9.68;2.72;;;;;;;9.32;90.78;99762.56;5163812;28;20030;-73
2023/04/25 00:51:49;;;;;;;6.70;2.00;;;;;;;9.24;89.89;99765.50;5163936;28;20075;-74
2023/04/25 00:54:20;;;;;;;7.07;1.92;;;;;;;9.14;91.64;99764.19;5182484;28;20022;-72
2023/04/25 00:56:51;;;;;;;7.38;2.05;;;;;;;9.21;91.14;99764.78;5180638;28;20391;-71
2023/04/25 00:59:21;;;;;;;7.65;2.25;;;;;;;9.32;90.51;99760.81;5183827;28;20030;-71
2023/04/25 01:01:51;;;;;;;6.82;2.25;;;;;;;9.26;90.65;99757.59;5165618;28;20692;-72
2023/04/25 01:04:22;;;;;;;19.67;3.25;;;;;;;9.28;89.87;99761.03;5164752;28;20025;-72
2023/04/25 01:06:53;;;;;;;8.57;2.40;;;;;;;9.01;91.07;99756.13;5181380;28;20026;-72
2023/04/25 01:09:24;;;;;;;8.25;2.42;;;;;;;9.20;91.30;99763.09;5180809;28;20064;-73
2023/04/25 01:11:54;;;;;;;5.68;2.03;;;;;;;9.16;90.72;99756.31;5164713;28;20774;-73
2023/04/25 01:14:24;;;;;;;7.88;2.10;;;;;;;9.22;90.02;99750.84;5163200;28;20022;-72
2023/04/25 01:16:55;;;;;;;7.65;2.55;;;;;;;9.16;90.31;99753.72;5181856;28;20109;-69
2023/04/25 01:19:25;;;;;;;6.15;2.08;;;;;;;9.18;90.06;99741.47;5162702;28;20029;-73
2023/04/25 01:21:56;;;;;;;8.68;2.15;;;;;;;9.18;89.66;99757.94;5164496;28;20050;-73
2023/04/25 01:24:26;;;;;;;7.72;3.00;;;;;;;9.21;90.11;99755.22;5182355;28;20034;-73
2023/04/25 01:26:58;;;;;;;10.15;2.60;;;;;;;9.18;90.21;99759.72;5179393;28;20033;-72
2023/04/25 01:29:29;;;;;;;10.45;2.85;;;;;;;9.20;89.60;99757.88;5179912;28;20038;-72
2023/04/25 01:31:59;;;;;;;6.55;2.17;;;;;;;9.15;89.60;99759.84;5180142;28;20022;-72
2023/04/25 01:34:30;;;;;;;7.82;2.20;;;;;;;9.07;89.78;99761.91;5182436;28;20455;-73
2023/04/25 01:37:01;;;;;;;13.85;2.53;;;;;;;9.04;91.80;99766.44;5180834;28;20394;-74
2023/04/25 01:39:32;;;;;;;7.35;2.45;;;;;;;9.05;90.62;99761.13;5164409;28;20030;-72
2023/04/25 01:42:02;;;;;;;11.70;2.53;;;;;;;8.96;91.22;99748.50;5181201;28;20048;-72
2023/04/25 01:44:32;;;;;;;6.22;2.30;;;;;;;9.03;90.63;99768.19;5183263;28;20034;-72
2023/04/25 01:47:03;;;;;;;7.60;2.33;;;;;;;8.99;90.58;99769.22;5179559;28;20040;-75
2023/04/25 01:49:33;;;;;;;8.50;2.58;;;;;;;9.03;90.72;99765.56;5181884;28;20032;-72
2023/04/25 01:52:04;;;;;;;11.02;2.92;;;;;;;8.97;92.02;99765.84;5180958;28;20053;-72
2023/04/25 01:54:34;;;;;;;10.35;2.42;;;;;;;8.98;91.55;99772.75;5182650;28;20030;-71
2023/04/25 01:57:04;;;;;;;10.70;2.60;;;;;;;8.97;91.79;99772.78;5187075;28;20032;-72
2023/04/25 01:59:35;;;;;;;9.13;2.30;;;;;;;9.03;91.49;99772.56;5183522;28;20395;-72
2023/04/25 02:02:06;;;;;;;9.60;2.35;;;;;;;9.00;91.83;99770.06;5179292;28;20041;-72
2023/04/25 02:04:36;;;;;;;8.40;2.70;;;;;;;9.14;91.06;99771.19;5163731;28;20026;-73
2023/04/25 02:07:06;;;;;;;8.00;2.67;;;;;;;9.05;91.84;99770.72;5160432;28;20634;-72
2023/04/25 02:09:37;;;;;;;10.38;2.90;;;;;;;9.06;92.02;99767.22;5182433;28;20029;-70
2023/04/25 02:12:09;;;;;;;12.07;2.70;;;;;;;9.05;90.94;99782.00;5185358;28;20063;-72
2023/04/25 02:14:39;;;;;;;9.50;2.58;;;;;;;8.97;91.62;99775.41;5188410;28;20399;-74
2023/04/25 02:17:10;;;;;;;10.75;2.60;;;;;;;8.98;91.95;99777.97;5161406;28;20032;-69
2023/04/25 02:19:40;;;;;;;6.40;2.40;;;;;;;8.96;92.17;99785.00;5185990;28;20088;-71
2023/04/25 02:22:10;;;;;;;10.32;2.75;;;;;;;8.82;92.78;99783.84;5183561;28;20406;-71
2023/04/25 02:24:41;;;;;;;7.97;2.60;;;;;;;8.92;93.18;99778.19;5187605;28;20022;-73
2023/04/25 02:27:11;;;;;;;7.70;2.70;;;;;;;9.01;92.23;99777.81;5181554;28;20099;-72
2023/04/25 02:29:41;;;;;;;7.88;2.55;;;;;;;8.87;92.94;99774.09;5180874;28;20490;-73
2023/04/25 02:32:12;;;;;;;8.43;2.70;;;;;;;8.85;93.67;99781.97;5182570;28;20029;-73
2023/04/25 02:34:42;;;;;;;8.85;2.85;;;;;;;8.91;92.18;99775.66;5180504;28;20025;-74
2023/04/25 02:37:12;;;;;;;11.57;3.45;;;;;;;8.89;92.57;99773.13;5179201;28;20063;-73
2023/04/25 02:39:42;;;;;;;7.10;2.63;;;;;;;8.90;93.24;99771.38;5163949;28;20513;-72
2023/04/25 02:42:13;;;;;;;8.52;2.53;;;;;;;8.93;93.73;99766.84;5187169;28;20467;-73
2023/04/25 02:44:43;;;;;;;8.32;2.53;;;;;;;8.91;93.50;99773.91;5183692;28;20046;-72
2023/04/25 02:47:13;;;;;;;10.43;2.90;;;;;;;8.96;93.87;99766.75;5175256;28;21078;-72
2023/04/25 02:49:44;;;;;;;7.38;2.92;;;;;;;8.86;93.97;99762.81;5183007;28;20029;-74
2023/04/25 02:52:15;;;;;;;8.75;2.47;;;;;;;8.80;94.81;99763.09;5178175;28;20026;-72
2023/04/25 02:54:45;;;;;;;8.82;3.08;;;;;;;8.94;94.36;99765.97;5181587;28;20017;-73
2023/04/25 02:57:15;;;;;;;8.93;2.95;;;;;;;8.88;94.60;99758.41;5180524;28;20584;-72
2023/04/25 02:59:46;;;;;;;8.68;2.95;;;;;;;8.77;94.96;99765.81;5179470;28;20029;-72
2023/04/25 03:02:16;;;;;;;7.60;3.15;;;;;;;8.71;96.19;99768.66;5178465;28;20532;-73
2023/04/25 03:04:46;;;;;;;7.78;3.30;;;;;;;8.74;96.61;99768.53;5184053;28;20022;-73
2023/04/25 03:07:17;;;;;;;7.32;3.38;;;;;;;8.83;95.99;99768.16;5177601;28;20021;-72
2023/04/25 03:09:47;;;;;;;9.73;3.42;;;;;;;8.91;95.88;99767.84;5159944;28;20026;-71
2023/04/25 03:12:18;;;;;;;8.18;2.95;;;;;;;8.82;97.47;99771.69;5178918;28;20163;-74
2023/04/25 03:14:48;;;;;;;9.82;3.00;;;;;;;8.77;97.62;99767.56;5179940;28;20075;-71
2023/04/25 03:17:18;;;;;;;12.30;3.00;;;;;;;8.73;98.21;99769.44;5177064;28;20113;-71
2023/04/25 03:19:49;;;;;;;8.27;3.90;;;;;;;8.83;98.02;99768.16;5184742;28;20090;-70
2023/04/25 03:22:19;;;;;;;9.68;3.20;;;;;;;8.64;97.64;99766.38;5184463;28;20025;-69
2023/04/25 03:24:50;;;;;;;9.05;3.40;;;;;;;8.71;98.73;99768.66;5181093;28;20072;-72
2023/04/25 03:27:20;;;;;;;10.55;3.00;;;;;;;8.71;99.27;99762.63;5179072;28;20037;-72
2023/04/25 03:29:50;;;;;;;10.57;2.80;;;;;;;8.59;99.79;99769.16;5164209;28;20625;-74
2023/04/25 03:32:21;;;;;;;7.05;3.53;;;;;;;8.70;100.00;99773.94;5182596;28;20033;-74
2023/04/25 03:34:51;;;;;;;10.93;3.40;;;;;;;8.73;100.00;99776.44;5182794;28;20511;-72
2023/04/25 03:37:21;;;;;;;10.18;3.53;;;;;;;8.60;100.00;99776.09;5186694;28;20029;-72
2023/04/25 03:39:52;;;;;;;8.60;3.38;;;;;;;8.61;100.00;99782.13;5184759;28;20030;-74
2023/04/25 03:42:22;;;;;;;9.00;3.08;;;;;;;8.53;100.00;99785.03;5180581;28;20031;-73
2023/04/25 03:44:53;;;;;;;8.63;3.53;;;;;;;8.42;100.00;99787.19;5184229;28;20499;-73
2023/04/25 03:47:23;;;;;;;12.90;4.15;;;;;;;8.36;100.00;99795.25;5183550;28;20028;-72
2023/04/25 03:49:53;;;;;;;8.18;3.50;;;;;;;8.43;100.00;99799.34;5189495;28;20055;-73
2023/04/25 03:52:24;;;;;;;9.82;2.97;;;;;;;8.39;100.00;99805.56;5194318;28;20476;-73
2023/04/25 03:54:54;;;;;;;11.98;3.22;;;;;;;8.23;100.00;99814.84;5192594;28;20030;-73
2023/04/25 03:57:24;;;;;;;10.40;3.25;;;;;;;8.23;100.00;99822.66;5190422;28;20486;-71
2023/04/25 03:59:55;;;;;;;10.50;3.38;;;;;;;8.27;100.00;99824.28;5167703;28;20099;-73
2023/04/25 04:02:25;;;;;;;11.27;3.22;;;;;;;8.11;100.00;99822.25;5192726;28;20037;-73
2023/04/25 04:04:56;;;;;;;7.10;2.50;;;;;;;8.09;100.00;99824.94;5190953;28;20026;-75
2023/04/25 04:07:26;;;;;;;12.65;2.40;;;;;;;8.03;100.00;99829.50;5190649;28;20558;-72
2023/04/25 04:09:56;;;;;;;10.50;2.88;;;;;;;7.93;100.00;99839.41;5186543;28;20036;-73
2023/04/25 04:12:27;;;;;;;9.18;2.30;;;;;;;7.90;100.00;99844.69;5191013;28;20117;-73
2023/04/25 04:14:57;;;;;;;12.68;2.10;;;;;;;8.03;100.00;99845.97;5188751;28;20037;-72
2023/04/25 04:17:27;;;;;;;10.43;2.10;;;;;;;8.09;100.00;99835.34;5171888;28;20037;-73
2023/04/25 04:19:58;;;;;;;11.77;2.10;;;;;;;8.11;100.00;99843.06;5190596;28;20033;-73
2023/04/25 04:22:28;;;;;;;12.13;2.33;;;;;;;8.02;100.00;99851.25;5171139;28;20040;-74
2023/04/25 04:24:58;;;;;;;14.77;2.05;;;;;;;8.06;100.00;99855.41;5173807;28;20053;-73
2023/04/25 04:27:29;;;;;;;13.05;2.10;;;;;;;7.98;100.00;99857.44;5186906;28;20076;-71
2023/04/25 04:30:00;;;;;;;10.48;2.50;;;;;;;8.02;100.00;99854.66;5163956;28;20407;-74
2023/04/25 04:32:30;;;;;;;10.25;3.08;;;;;;;8.10;100.00;99863.06;5167406;28;20113;-73
2023/04/25 04:35:00;;;;;;;10.65;1.90;;;;;;;8.05;100.00;99870.16;5192755;28;20137;-73
2023/04/25 04:37:31;;;;;;;10.50;2.03;;;;;;;8.11;100.00;99874.31;5191385;28;20502;-73
2023/04/25 04:40:05;;;;;;;13.23;2.70;;;;;;;8.13;100.00;99872.50;5191967;28;20038;-73
2023/04/25 04:42:36;;;;;;;18.75;1.98;;;;;;;8.07;100.00;99878.75;5172196;28;20095;-74
2023/04/25 04:45:06;;;;;;;10.85;2.00;;;;;;;8.01;100.00;99884.19;5188217;28;20022;-74
2023/04/25 04:47:37;;;;;;;11.45;1.95;;;;;;;8.01;100.00;99886.78;5186860;28;20369;-74
2023/04/25 04:50:09;;;;;;;12.60;2.35;;;;;;;8.05;100.00;99884.94;5159504;28;20029;-72
2023/04/25 04:52:39;;;;;;;10.00;1.92;;;;;;;8.17;100.00;99885.34;5188164;28;20064;-73
2023/04/25 04:55:09;;;;;;;12.48;2.55;;;;;;;8.14;100.00;99884.59;5166820;28;20041;-72
2023/04/25 04:57:40;;;;;;;7.25;1.85;;;;;;;8.12;100.00;99894.22;5169184;28;20032;-71
2023/04/25 05:00:11;;;;;;;12.85;2.42;;;;;;;8.22;100.00;99888.63;5192462;28;20387;-73
2023/04/25 05:02:42;;;;;;;12.38;2.30;;;;;;;8.27;100.00;99898.88;5185509;28;20061;-72
2023/04/25 05:05:12;;;;;;;12.95;2.42;;;;;;;8.09;100.00;99896.94;5192830;28;20470;-73
2023/04/25 05:07:42;;;;;;;8.68;2.03;;;;;;;8.37;100.00;99901.09;5189617;28;20099;-72
2023/04/25 05:10:13;;;;;;;11.00;2.03;;;;;;;8.18;100.00;99901.84;5190285;28;20090;-73
2023/04/25 05:12:43;;;;;;;14.82;2.75;;;;;;;8.23;100.00;99905.13;5190788;28;20293;-72
2023/04/25 05:15:13;;;;;;;9.75;2.22;;;;;;;8.45;100.00;99904.28;5186261;28;20030;-74
2023/04/25 05:17:43;;;;;;;13.68;2.13;;;;;;;8.29;100.00;99907.50;5186275;28;20063;-73
2023/04/25 05:20:14;;;;;;;13.15;2.20;;;;;;;8.39;100.00;99911.47;5193764;28;20029;-74
2023/04/25 05:22:44;;;;;;;13.07;2.25;;;;;;;8.41;98.55;99907.88;5192424;28;20118;-75
2023/04/25 05:25:14;;;;;;;13.38;2.22;;;;;;;8.63;99.29;99910.53;5193759;28;20551;-72
2023/04/25 05:27:45;;;;;;;16.08;2.78;;;;;;;8.64;97.93;99923.50;5184369;28;20115;-72
2023/04/25 05:30:15;;;;;;;10.55;2.38;;;;;;;8.62;97.92;99914.03;5189173;28;20446;-74
2023/04/25 05:32:46;;;;;;;15.30;2.33;;;;;;;8.66;95.74;99920.81;5183274;28;20030;-71
2023/04/25 05:35:17;;;;;;;28.17;3.20;;;;;;;8.51;95.74;99922.25;5171960;28;20799;-72
2023/04/25 05:37:47;;;;;;;17.88;2.47;;;;;;;8.59;95.01;99922.81;5182759;28;20121;-72
2023/04/25 05:40:17;;;;;;;12.90;2.38;;;;;;;8.52;94.78;99929.16;5169277;28;20426;-74
2023/04/25 05:42:48;;;;;;;12.18;2.08;;;;;;;8.64;95.76;99933.06;5187970;28;20028;-71
2023/04/25 05:45:18;;;;;;;11.75;2.20;;;;;;;8.75;94.00;99930.91;5181583;28;20500;-76
2023/04/25 05:47:48;;;;;;;11.05;1.85;;;;;;;8.75;92.03;99936.94;5184874;28;20148;-73
2023/04/25 05:50:19;;;;;;;12.65;2.85;;;;;;;8.86;92.16;99940.00;5172185;28;20025;-73
2023/04/25 05:52:50;;;;;;;12.18;1.92;;;;;;;9.27;90.13;99939.19;5186544;28;20494;-72
2023/04/25 05:55:21;;;;;;;17.73;2.33;;;;;;;9.39;88.60;99942.16;5172165;28;20087;-74
2023/04/25 05:57:51;;;;;;;10.63;2.38;;;;;;;9.15;88.95;99947.53;5190395;28;20809;-73
2023/04/25 06:00:22;;;;;;;14.15;2.20;;;;;;;9.18;89.40;99955.22;5163543;28;20033;-73
2023/04/25 06:02:52;;;;;;;14.20;1.88;;;;;;;9.36;87.94;99951.88;5182261;28;20116;-74
2023/04/25 06:05:23;;;;;;;12.15;1.95;;;;;;;9.68;86.84;99959.22;5169714;28;20096;-73
2023/04/25 06:07:53;;;;;;;20.25;2.25;;;;;;;9.87;85.12;99962.75;5166549;28;20026;-73
2023/04/25 06:10:24;;;;;;;13.35;2.35;;;;;;;9.78;83.93;99965.72;5194600;28;20538;-72
2023/04/25 06:12:55;;;;;;;16.95;2.10;;;;;;;9.59;82.76;99964.81;5191998;28;20061;-72
2023/04/25 06:15:25;;;;;;;12.63;1.80;;;;;;;9.59;82.91;99959.59;5204900;23;20054;-72
2023/04/25 06:17:56;;;;;;;13.30;1.98;;;;;;;9.62;82.61;99964.72;5173510;28;20533;-73
2023/04/25 06:20:26;;;;;;;11.15;1.92;;;;;;;9.46;81.95;99958.41;5172083;28;20539;-72
2023/04/25 06:22:57;;;;;;;14.00;1.88;;;;;;;9.36;82.35;99964.91;5172380;28;20042;-72
2023/04/25 06:25:27;;;;;;;7.97;1.77;;;;;;;10.39;79.33;99955.25;5170877;28;20052;-72
2023/04/25 06:27:57;;;;;;;15.27;2.10;;;;;;;10.94;75.37;99953.53;5159569;28;20231;-72
2023/04/25 06:30:27;;;;;;;19.38;2.20;;;;;;;10.63;76.24;99958.47;5167831;28;20088;-72
2023/04/25 06:32:58;;;;;;;15.55;2.20;;;;;;;10.88;75.27;99965.13;5166412;28;20026;-73
2023/04/25 06:35:28;;;;;;;13.18;2.08;;;;;;;13.62;69.09;99959.34;5174510;28;20033;-73
2023/04/25 06:37:58;;;;;;;11.65;2.13;;;;;;;13.68;66.99;99966.00;5167559;28;20029;-73
2023/04/25 06:40:28;;;;;;;8.48;1.70;;;;;;;13.46;67.46;99963.78;5165223;28;20496;-72
2023/04/25 06:42:59;;;;;;;8.88;2.15;;;;;;;13.38;66.20;99976.47;5167219;28;20026;-71
2023/04/25 06:45:29;;;;;;;11.85;2.10;;;;;;;12.65;67.39;99979.72;5169300;28;20037;-73
2023/04/25 06:47:59;;;;;;;10.35;2.00;;;;;;;11.64;68.24;99984.97;5162335;28;20560;-72
2023/04/25 06:50:30;;;;;;;17.17;2.08;;;;;;;11.70;69.22;99991.66;5166217;28;20093;-72
2023/04/25 06:53:01;;;;;;;10.52;1.90;;;;;;;11.29;69.56;99983.19;5172066;28;20053;-72
2023/04/25 06:55:31;;;;;;;11.23;1.90;;;;;;;11.47;69.68;99987.53;5168884;28;20025;-72
2023/04/25 06:58:01;;;;;;;7.90;1.63;;;;;;;11.15;70.22;99990.00;5161312;28;20041;-71
2023/04/25 07:00:33;;;;;;;13.90;2.08;;;;;;;11.19;70.37;100000.25;5163893;28;20030;-74
2023/04/25 07:03:03;;;;;;;11.60;1.65;;;;;;;11.80;67.67;99990.31;5171983;28;20026;-72
2023/04/25 07:05:33;;;;;;;9.27;1.67;;;;;;;12.41;65.84;99983.63;5169119;28;20369;-71
2023/04/25 07:08:04;;;;;;;9.38;1.77;;;;;;;13.55;64.44;99986.03;5165473;28;20041;-73
2023/04/25 07:10:34;;;;;;;11.45;2.08;;;;;;;14.09;62.46;99990.72;5164519;28;20030;-72
2023/04/25 07:13:05;;;;;;;10.90;2.50;;;;;;;13.32;64.22;99989.09;5164591;28;20396;-73
2023/04/25 07:15:35;;;;;;;7.32;1.70;;;;;;;12.75;65.03;99994.88;5171063;28;20021;-72
2023/04/25 07:18:05;;;;;;;11.73;1.80;;;;;;;12.77;63.40;99990.38;5171325;28;20057;-71
2023/04/25 07:20:36;;;;;;;5.15;1.50;;;;;;;12.24;62.74;99991.50;5170957;28;20084;-71
2023/04/25 07:23:06;;;;;;;11.25;1.80;;;;;;;12.41;59.21;99984.47;5169272;28;20297;-70
2023/04/25 07:25:36;;;;;;;7.03;1.48;;;;;;;12.10;60.30;99989.59;5167928;28;21055;-70
2023/04/25 07:28:07;;;;;;;7.78;1.98;;;;;;;11.83;59.73;99996.25;5167665;28;20042;-71
2023/04/25 07:30:37;;;;;;;4.93;1.20;;;;;;;12.02;58.40;99997.03;5167588;28;20040;-70
2023/04/25 07:33:07;;;;;;;8.40;1.27;;;;;;;12.46;59.64;100002.59;5168662;28;20036;-71
2023/04/25 07:35:38;;;;;;;5.57;1.08;;;;;;;13.37;55.68;99994.94;5162702;28;20022;-70
2023/04/25 07:38:10;;;;;;;10.27;1.50;;;;;;;12.69;56.23;100000.47;5169313;28;20073;-72
2023/04/25 07:40:40;;;;;;;7.63;1.35;;;;;;;11.88;59.27;100009.09;5148433;28;20044;-71
2023/04/25 07:43:14;;;;;;;7.43;1.35;;;;;;;11.94;60.63;100000.94;5172940;28;20430;-71
2023/04/25 07:45:44;;;;;;;11.73;1.70;;;;;;;11.14;62.03;100004.81;5178891;28;20058;-70
2023/04/25 07:48:18;;;;;;;10.30;1.65;;;;;;;11.73;63.31;99999.38;5169947;28;20546;-70
2023/04/25 07:50:48;;;;;;;7.43;1.67;;;;;;;11.78;63.92;100008.69;5166307;28;20022;-69
2023/04/25 07:53:19;;;;;;;12.63;2.60;;;;;;;11.90;62.66;100002.00;5175122;28;20095;-71
2023/04/25 07:55:50;;;;;;;15.30;1.60;;;;;;;11.44;62.67;100007.78;5167335;28;20033;-70
2023/04/25 07:58:21;;;;;;;8.63;1.23;;;;;;;11.91;58.18;100008.94;5152689;28;20018;-69
2023/04/25 08:00:52;;;;;;;5.70;1.02;;;;;;;12.28;57.09;100014.84;5167574;28;20032;-69
2023/04/25 08:03:22;;;;;;;8.23;1.23;;;;;;;11.85;58.54;100023.19;5170532;28;20468;-71
2023/04/25 08:05:52;;;;;;;8.50;1.83;;;;;;;11.77;58.77;100020.09;5167600;28;20033;-71
2023/04/25 08:08:22;;;;;;;8.80;1.20;;;;;;;11.59;60.53;100025.41;5170003;28;20091;-70
2023/04/25 08:10:53;;;;;;;7.32;1.30;;;;;;;11.10;61.04;100037.28;5166356;28;20053;-69
2023/04/25 08:13:23;;;;;;;10.48;1.70;;;;;;;10.95;61.83;100039.75;5173563;28;20026;-70
2023/04/25 08:15:54;;;;;;;5.78;1.10;;;;;;;10.77;62.68;100037.97;5177746;28;20570;-70
2023/04/25 08:18:24;;;;;;;6.60;1.10;;;;;;;10.78;63.49;100047.50;5166985;28;20041;-70
2023/04/25 08:20:55;;;;;;;11.00;1.77;;;;;;;10.65;63.62;100053.38;5169933;28;20488;-70
2023/04/25 08:23:25;;;;;;;12.55;1.60;;;;;;;10.69;64.32;100047.06;5169170;28;20038;-70
2023/04/25 08:25:55;;;;;;;10.10;2.65;;;;;;;11.13;64.47;100050.22;5170715;28;20038;-71
2023/04/25 08:28:25;;;;;;;12.57;1.60;;;;;;;12.42;62.27;100038.59;5165536;28;20042;-71
2023/04/25 08:30:56;;;;;;;10.10;1.80;;;;;;;13.03;60.92;100029.22;5169518;28;20492;-72
2023/04/25 08:33:26;;;;;;;4.88;1.42;;;;;;;12.52;62.14;100039.81;5172142;28;20037;-71
2023/04/25 08:35:57;;;;;;;6.50;1.52;;;;;;;12.11;61.79;100042.84;5165958;28;20030;-71
2023/04/25 08:38:27;;;;;;;9.07;2.35;;;;;;;11.54;61.73;100054.38;5164434;28;20034;-70
2023/04/25 08:41:00;;;;;;;7.63;1.83;;;;;;;11.19;62.82;100055.16;5172785;28;20052;-71
2023/04/25 08:43:31;;;;;;;8.45;1.90;;;;;;;11.04;64.00;100063.72;5170504;28;20030;-70
2023/04/25 08:46:01;;;;;;;10.23;1.58;;;;;;;10.26;65.32;100069.00;5167416;28;20034;-71
2023/04/25 08:48:33;;;;;;;13.60;1.92;;;;;;;10.39;67.59;100075.41;5167893;28;20029;-70
2023/04/25 08:51:07;;;;;;;9.52;1.70;;;;;;;10.14;67.84;100081.72;5147269;28;20057;-71
2023/04/25 08:53:42;;;;;;;8.18;1.60;;;;;;;10.14;69.49;100094.78;5167510;28;20405;-71
2023/04/25 08:56:17;;;;;;;9.38;1.40;;;;;;;9.94;70.30;100086.84;5168809;28;20053;-70
2023/04/25 08:58:50;;;;;;;8.18;1.70;;;;;;;10.05;70.31;100096.00;5163100;28;20369;-71
2023/04/25 09:01:20;;;;;;;8.88;1.58;;;;;;;10.17;69.85;100085.03;5164900;28;20594;-69
2023/04/25 09:03:51;;;;;;;7.15;1.45;;;;;;;10.21;67.41;100096.19;5166514;28;20026;-69
2023/04/25 09:06:23;;;;;;;6.22;1.40;;;;;;;10.27;67.22;100090.72;5165930;28;20484;-72
2023/04/25 09:08:53;;;;;;;11.68;1.77;;;;;;;10.68;68.59;100092.41;5162639;28;20022;-70
2023/04/25 09:11:24;;;;;;;9.82;1.80;;;;;;;10.87;65.77;100093.31;5170889;28;20030;-70
2023/04/25 09:14:17;;;;;;;9.93;2.15;;;;;;;11.35;65.88;100103.25;5164853;28;20061;-71
2023/04/25 09:16:56;;;;;;;11.00;2.05;;;;;;;10.77;63.59;100103.31;5170308;28;20022;-70
2023/04/25 09:19:29;;;;;;;9.10;2.13;;;;;;;10.94;64.08;100107.78;5164575;28;20049;-71
2023/04/25 09:22:02;;;;;;;9.23;2.35;;;;;;;10.98;64.49;100107.59;5164733;28;20563;-71
2023/04/25 09:24:43;;;;;;;11.73;1.60;;;;;;;11.20;61.98;100113.53;5165273;28;20026;-69
2023/04/25 09:27:18;;;;;;;10.75;2.38;;;;;;;12.94;61.51;100105.75;5162304;28;20113;-70
2023/04/25 09:29:57;;;;;;;6.38;2.25;;;;;;;12.57;58.59;100111.19;5161448;28;20037;-70
2023/04/25 09:32:27;;;;;;;5.90;1.40;;;;;;;11.98;59.52;100115.09;5167328;28;20064;-70
2023/04/25 09:34:58;;;;;;;8.70;1.90;;;;;;;11.94;59.23;100117.00;5165629;28;20451;-71
2023/04/25 09:37:29;;;;;;;16.90;3.15;;;;;;;11.32;58.01;100142.63;5149492;28;20147;-71
2023/04/25 09:40:05;;;;;;;6.43;1.42;;;;;;;11.10;59.03;100138.44;5160188;28;20444;-71
2023/04/25 09:42:36;;;;;;;6.50;1.25;;;;;;;10.85;59.84;100147.41;5164524;28;20061;-70
2023/04/25 09:45:07;;;;;;;5.95;1.48;;;;;;;10.81;61.07;100148.44;5166955;28;20085;-71
2023/04/25 09:47:38;;;;;;;5.28;1.50;;;;;;;10.60;61.00;100147.63;5160030;28;20030;-71
2023/04/25 09:50:17;;;;;;;6.95;1.45;;;;;;;10.42;60.92;100151.00;5166501;28;20034;-70
2023/04/25 09:53:02;;;;;;;3.83;0.98;;;;;;;10.24;62.29;100150.91;5150243;28;20448;-71
2023/04/25 09:55:34;;;;;;;4.43;0.90;;;;;;;10.33;61.51;100148.75;5165379;28;20461;-71
2023/04/25 09:58:08;;;;;;;6.95;1.30;;;;;;;10.38;62.70;100151.19;5162293;28;20109;-70
2023/04/25 10:00:40;;;;;;;7.28;2.65;;;;;;;10.25;62.80;100160.44;5166037;28;20105;-71
2023/04/25 10:03:11;;;;;;;5.38;1.38;;;;;;;10.38;63.52;100161.66;5151150;28;20026;-71
2023/04/25 10:05:43;;;;;;;15.32;3.47;;;;;;;10.43;63.82;100160.53;5165088;28;20496;-71
2023/04/25 10:08:14;;;;;;;14.48;4.10;;;;;;;10.24;62.82;100159.59;5168643;28;20038;-71
2023/04/25 10:10:45;;;;;;;5.55;1.35;;;;;;;10.12;61.56;100167.94;5170135;28;20025;-70
2023/04/25 10:13:15;;;;;;;4.00;1.80;;;;;;;10.36;62.47;100173.91;5165547;28;20034;-70
2023/04/25 10:15:46;;;;;;;6.75;1.33;;;;;;;10.21;62.16;100166.72;5173632;28;20123;-71
2023/04/25 10:18:19;;;;;;;10.35;2.30;;;;;;;10.92;62.88;100175.00;5165489;28;20113;-70
2023/04/25 10:20:50;;;;;;;7.40;1.45;;;;;;;11.09;61.84;100168.94;5165288;28;20061;-71
2023/04/25 10:23:20;;;;;;;6.90;1.58;;;;;;;11.79;60.44;100166.63;5149672;28;20034;-70
2023/04/25 10:25:52;;;;;;;7.68;2.90;;;;;;;11.91;59.87;100159.03;5162909;28;20448;-70
2023/04/25 10:28:23;;;;;;;7.38;1.67;;;;;;;11.76;60.94;100165.00;5165261;28;20116;-71
2023/04/25 10:31:04;;;;;;;5.05;1.50;;;;;;;11.84;60.67;100167.25;5160791;28;20112;-71
2023/04/25 10:33:40;;;;;;;11.15;2.60;;;;;;;11.81;59.63;100165.63;5171383;28;20040;-70
2023/04/25 10:36:24;;;;;;;7.78;2.00;;;;;;;11.65;60.71;100167.25;5163555;28;20373;-71
2023/04/25 10:38:54;;;;;;;8.35;2.03;;;;;;;11.60;60.79;100171.03;5162064;28;21226;-71
2023/04/25 10:41:24;;;;;;;3.65;1.40;;;;;;;11.22;59.30;100170.13;5168063;28;20033;-71
2023/04/25 10:44:01;;;;;;;4.57;1.10;;;;;;;10.96;59.34;100187.00;5141871;28;20058;-71
2023/04/25 10:46:34;;;;;;;7.90;1.58;;;;;;;11.21;59.70;100178.88;5170543;28;20034;-71
2023/04/25 10:49:04;;;;;;;4.78;1.40;;;;;;;11.70;60.22;100169.66;5161162;28;20054;-71
2023/04/25 10:51:36;;;;;;;4.82;1.40;;;;;;;12.47;58.79;100161.53;5164119;28;20598;-70
2023/04/25 10:54:08;;;;;;;5.05;0.90;;;;;;;12.20;55.07;100157.66;5172260;28;20538;-71
2023/04/25 10:56:44;;;;;;;7.15;1.38;;;;;;;12.50;57.26;100154.34;5162599;28;20118;-72
2023/04/25 10:59:16;;;;;;;31.73;8.27;;;;;;;12.28;56.04;100152.91;5159644;28;20109;-71
2023/04/25 11:01:51;;;;;;;9.98;4.20;;;;;;;12.20;55.96;100163.75;5162816;28;20224;-71
2023/04/25 11:04:23;;;;;;;5.95;1.90;;;;;;;12.19;55.84;100161.19;5162703;28;20116;-68
2023/04/25 11:07:02;;;;;;;4.30;1.35;;;;;;;12.06;54.75;100165.31;5168190;28;20105;-71
2023/04/25 11:09:33;;;;;;;4.78;0.88;;;;;;;12.05;54.62;100177.56;5167312;28;20079;-68
2023/04/25 11:12:04;;;;;;;3.53;1.05;;;;;;;11.83;54.68;100171.66;5163970;28;20042;-70
2023/04/25 11:14:36;;;;;;;6.80;1.33;;;;;;;11.81;54.74;100172.66;5161265;28;20076;-71
2023/04/25 11:17:06;;;;;;;6.30;2.20;;;;;;;11.66;55.38;100183.84;5169615;28;20058;-72
2023/04/25 11:19:36;;;;;;;6.32;1.90;;;;;;;11.61;55.08;100178.81;5163262;28;20034;-71
2023/04/25 11:22:07;;;;;;;8.05;1.73;;;;;;;11.68;56.44;100181.97;5162655;28;20073;-70
2023/04/25 11:24:38;;;;;;;6.85;1.58;;;;;;;11.65;56.13;100177.72;5167316;28;20640;-69
2023/04/25 11:27:08;;;;;;;5.60;1.10;;;;;;;11.85;56.25;100189.91;5160932;28;20026;-70
2023/04/25 11:29:38;;;;;;;5.80;1.40;;;;;;;11.69;56.33;100191.53;5169288;28;20500;-70
2023/04/25 11:32:08;;;;;;;2.90;1.10;;;;;;;11.72;56.68;100192.25;5162270;28;20208;-70
2023/04/25 11:34:39;;;;;;;4.07;1.13;;;;;;;11.67;56.73;100186.38;5165009;28;20038;-70
2023/04/25 11:37:11;;;;;;;5.70;1.23;;;;;;;11.60;57.36;100182.34;5163171;28;20483;-70
2023/04/25 11:39:48;;;;;;;3.50;1.13;;;;;;;11.34;55.74;100192.25;5163507;28;20026;-70
2023/04/25 11:42:19;;;;;;;3.60;0.75;;;;;;;11.30;57.72;100199.38;5166040;28;20434;-70
2023/04/25 11:44:51;;;;;;;4.55;0.95;;;;;;;10.69;57.59;100203.88;5163431;28;20022;-71
2023/04/25 11:47:28;;;;;;;4.70;0.90;;;;;;;10.51;59.12;100215.09;5168683;28;20057;-70
2023/04/25 11:50:03;;;;;;;3.90;1.10;;;;;;;10.41;60.29;100213.75;5158466;28;20030;-70